Flight Track Log - Related Links

Times and Time Zones

All times are in EST time to prevent confusion due to time zone crossing. See the DAL6269 flight status page for this flight to view local times or setup timezone preferences in your user account.

Time Position Orientation Groundspeed Altitude Reporting Facility
EST Latitude Longitude Course Direction KTS MPH feet Rate Location/Type
Wed 03:54:54 PM 42.9333 -78.7500 216° Southwest 155 178 2,100  Level Buffalo TRACON
Wed 03:55:18 PM 42.9167 -78.7667 216° Southwest 164 189 3,000 2,257 Climbing Buffalo TRACON
Wed 03:56:35 PM 42.8636 -78.7122 143° Southeast 233 268 5,900 2,633 Climbing Cleveland Center
Wed 03:57:37 PM 42.8622 -78.6075 91° East 265 305 9,100 2,468 Climbing Cleveland Center
Wed 03:58:39 PM 42.8592 -78.5078 92° East 291 335 11,000 1,548 Climbing Cleveland Center
Wed 03:59:41 PM 42.8539 -78.3467 93° East 362 417 12,300 1,500 Climbing Cleveland Center
Wed 04:00:43 PM 42.8400 -78.1958 97° East 397 457 14,100 1,839 Climbing Cleveland Center
Wed 04:01:45 PM 42.8225 -78.0433 99° East 404 465 16,100 1,887 Climbing Cleveland Center
Wed 04:02:47 PM 42.8044 -77.8881 99° East 410 472 18,000 1,749 Climbing Cleveland Center
Wed 04:04:40 PM 42.7706 -77.6000 99° East 421 484 21,200 1,690 Climbing Boston Center
Wed 04:05:41 PM 42.7514 -77.4331 99° East 436 502 22,900 1,623 Climbing Boston Center
Wed 04:06:42 PM 42.7306 -77.2642 99° East 446 513 24,500 1,366 Climbing Boston Center
Wed 04:07:44 PM 42.7097 -77.0942 99° East 452 520 25,700 1,171 Climbing Boston Center
Wed 04:08:45 PM 42.6881 -76.9172 99° East 468 539 26,900 1,171 Climbing Boston Center
Wed 04:09:47 PM 42.6653 -76.7406 100° East 473 544 28,100 1,024 Climbing Boston Center
Wed 04:10:48 PM 42.6428 -76.5606 100° East 481 554 29,000 443 Climbing Boston Center
Wed 04:11:49 PM 42.6150 -76.3378 100° East 497 572 29,000  Level Boston Center
Wed 04:12:49 PM 42.5928 -76.1728 100° East 503 579 29,000  Level Boston Center
Wed 04:13:51 PM 42.5683 -75.9886 100° East 503 579 29,000  Level Boston Center
Wed 04:14:51 PM 42.5439 -75.8072 100° East 496 571 29,000 -149 Level Boston Center
Wed 04:15:52 PM 42.5153 -75.5911 100° East 493 567 28,700 -496 Descending Boston Center
Wed 04:16:52 PM 42.4908 -75.4139 101° East 486 559 28,000 -446 Descending Boston Center
Wed 04:17:53 PM 42.4625 -75.2350 102° East 486 559 27,800 -984 Descending Boston Center
Wed 04:18:54 PM 42.4083 -75.0803 115° Southeast 460 529 26,000 -1,884 Descending Boston Center
Wed 04:19:54 PM 42.3556 -74.9353 116° Southeast 436 502 24,000 -1,805 Descending Boston Center
Wed 04:20:57 PM 42.3064 -74.8003 116° Southeast 411 473 22,300 -1,344 Descending Boston Center
Wed 04:21:59 PM 42.2575 -74.6686 117° Southeast 397 457 21,200 -1,033 Descending Boston Center
Wed 04:22:59 PM 42.2094 -74.5392 117° Southeast 390 449 20,200 -1,082 Descending Boston Center
Wed 04:24:01 PM 42.1550 -74.3939 117° Southeast 391 450 19,000 -1,122 Descending Boston Center
Wed 04:25:02 PM 42.0897 -74.2878 130° Southeast 380 437 17,900 -1,884 Descending Boston Center
Wed 04:26:02 PM 41.9933 -74.2253 154° Southeast 361 415 15,200 -2,150 Descending Boston Center
Wed 04:27:02 PM 41.9081 -74.1681 153° Southeast 346 398 13,600 -1,289 Descending Boston Center
Wed 04:28:03 PM 41.8242 -74.1139 154° Southeast 337 388 12,600 -984 Descending Boston Center
Wed 04:29:04 PM 41.7411 -74.0583 153° Southeast 336 387 11,600 -942 Descending Boston Center
Wed 04:30:04 PM 41.6608 -74.0053 154° Southeast 325 374 10,700 -927 Descending Boston Center
Wed 04:31:07 PM 41.5803 -73.9539 154° Southeast 297 342 9,700 -774 Descending Boston Center
Wed 04:32:08 PM 41.5075 -73.9056 154° Southeast 294 338 9,100 -298 Descending Boston Center
Wed 04:33:08 PM 41.4347 -73.8578 154° Southeast 291 335 9,100  Level Boston Center
Wed 04:34:10 PM 41.3625 -73.8108 154° Southeast 290 334 9,100 -585 Level Boston Center
Wed 04:35:11 PM 41.2958 -73.7550 148° Southeast 285 328 7,900 -1,453 Descending Boston Center
Wed 04:36:18 PM 41.2167 -73.6833 146° Southeast 274 315 6,000 -1,654 Descending New York TRACON
Wed 04:37:18 PM 41.1667 -73.6333 143° Southeast 269 310 4,400 -1,000 Descending New York TRACON
Wed 04:38:18 PM 41.0833 -73.6167 171° South 280 322 4,000 -200 Descending New York TRACON
Wed 04:39:18 PM 41.0167 -73.5833 159° South 266 306 4,000  Level New York TRACON
Wed 04:40:18 PM 40.9333 -73.5667 171° South 273 314 4,000  Level New York TRACON
Wed 04:41:24 PM 40.8667 -73.6167 210° Southwest 275 316 4,000  Level New York TRACON
Wed 04:42:24 PM 40.8000 -73.6667 210° Southwest 274 315 4,000  Level New York TRACON
Wed 04:43:24 PM 40.7833 -73.7500 255° West 243 280 4,000  Level New York TRACON
Wed 04:44:24 PM 40.7833 -73.8333 270° West 237 273 4,000 50 Level New York TRACON
Wed 04:45:24 PM 40.7667 -73.9167 255° West 252 290 4,100 50 Climbing New York TRACON
Wed 04:46:24 PM 40.7167 -74.0000 232° Southwest 265 305 4,100 -50 Level New York TRACON
Wed 04:47:24 PM 40.6667 -74.0500 217° Southwest 236 272 4,000 -50 Descending New York TRACON
Wed 04:48:24 PM 40.6333 -74.1000 229° Southwest 197 227 4,000 -157 Level New York TRACON
Wed 04:49:19 PM 40.5833 -74.1000 180° South 214 246 3,700 -470 Descending New York TRACON
Wed 04:50:19 PM 40.5667 -74.0500 114° Southeast 196 226 3,100 -480 Descending New York TRACON
Wed 04:51:24 PM 40.6167 -74.0000 37° Northeast 165 190 2,700 -240 Descending New York TRACON
Wed 04:52:24 PM 40.6500 -73.9667 37° Northeast 172 198 2,600 -50 Descending New York TRACON
Wed 04:53:24 PM 40.7000 -73.9500 14° North 170 196 2,600 -250 Level New York TRACON
Wed 04:54:24 PM 40.7333 -73.9000 49° Northeast 186 214 2,100 -700 Descending New York TRACON
Wed 04:55:24 PM 40.7333 -73.8500 90° East 146 168 1,200 -800 Descending New York TRACON
Wed 04:56:24 PM 40.7667 -73.8333 21° North 131 151 500 -700 Descending New York TRACON

Login

Don't have an account? Register now (free) for customized features, flight alerts, and more!